Containerships 6 — DABH — position and weather

sailwx.info

Track history (hours):
 
Tides and Currents Weather Stations Pressure Air Temp Water Temp Dewpoint Dewpoint Depression Visibility Wind Speed Wind Dir Waves Ship Positions

Containerships 6

Last reported at 2016-Sep-26 08:34 UTC. Time now 2016-Sep-26 10:31 UTC.
Position N 54°28' E 011°32'.

Length 155 m; beam 21.8 m; draft 8.9 m.

Type: Ship (hazmat cat A). MMSI: 211315096.

Date/timePositionNaut miles runAvg speedWind from/ knotsBaromVisibWave heightAir tempDewpointWater temp
2016-Sep-26 08:34N 54°28' E 011°32'6210.1
2016-Sep-26 02:27N 54°21' E 009°47'33 6.8
2016-Sep-25 21:33N 53°55' E 009°12'4010.0
2016-Sep-25 17:33N 53°59' E 008°04'1818.4
2016-Sep-25 16:33N 53°56' E 007°34'1918.5
2016-Sep-25 15:33N 53°51' E 007°03'1818.6
2016-Sep-25 14:33N 53°46' E 006°33'3718.5
2016-Sep-25 12:33N 53°35' E 005°34'1918.7
2016-Sep-25 11:33N 53°29' E 005°04'2217.7
2016-Sep-25 10:20N 53°16' E 004°35'1519.1
2016-Sep-25 09:33N 53°02' E 004°23'3718.5
2016-Sep-25 07:33N 52°30' E 003°55'3913.1
2016-Sep-25 04:34N 51°54' E 004°22'2 0.6
2016-Sep-25 00:30N 51°53' E 004°25'0 0.0
2016-Sep-24 22:32N 51°53' E 004°25'0 0.0
2016-Sep-24 21:30N 51°53' E 004°25'0 0.0
2016-Sep-24 19:32N 51°53' E 004°25'0 0.0
2016-Sep-24 18:32N 51°53' E 004°25'0 0.0
2016-Sep-24 14:31N 51°53' E 004°25'1 0.4
2016-Sep-24 12:34N 51°53' E 004°24'2512.7
2016-Sep-24 10:34N 52°02' E 003°46'2018.5
2016-Sep-24 09:28N 52°13' E 003°18'10417.7
2016-Sep-24 03:33N 53°21' E 001°07'3517.6
2016-Sep-24 01:33N 53°50' E 000°34'1818.5
2016-Sep-24 00:34N 54°04' E 000°13'55 3.7
2016-Sep-23 09:26N 54°47' W 000°46'12 4.1
2016-Sep-23 06:33N 54°42' W 001°04'0 0.0
2016-Sep-23 04:33N 54°42' W 001°04'1312.7
2016-Sep-23 03:34N 54°48' W 000°45'39317.1
2016-Sep-22 04:33N 57°40' E 009°51'1616.3
2016-Sep-22 03:33N 57°46' E 010°19'4515.0
2016-Sep-22 00:33N 57°22' E 011°30'1717.0
2016-Sep-21 23:33N 57°07' E 011°41'1717.2
2016-Sep-21 22:33N 56°51' E 011°53'5117.1
2016-Sep-21 19:33N 56°05' E 012°36'3912.9
2016-Sep-21 16:33N 55°27' E 012°42'  
2016-Sep-19 03:24N 60°11' E 025°13'1314.7
2016-Sep-19 02:29N 59°59' E 025°04'2915.0
2016-Sep-19 00:33N 59°41' E 024°18'37716.4
2016-Sep-18 01:34N 55°37' E 015°20'1716.6
2016-Sep-18 00:34N 55°29' E 014°55'3216.0
2016-Sep-17 22:34N 55°07' E 014°15'1616.3
2016-Sep-17 21:33N 54°57' E 013°52'3716.2
2016-Sep-17 19:16N 54°46' E 012°50'8013.9
2016-Sep-17 13:33N 54°33' E 010°35'1312.9
2016-Sep-17 12:33N 54°27' E 010°15'7 3.5
2016-Sep-17 10:33N 54°22' E 010°06'7 7.1
2016-Sep-17 09:33N 54°21' E 009°54'15 7.1
2016-Sep-17 07:25N 54°12' E 009°33'13 7.0
2016-Sep-17 05:33N 54°02' E 009°18'4 3.6
2016-Sep-17 04:33N 53°59' E 009°17'33 8.1
2016-Sep-17 00:33N 53°59' E 008°21'16318.1
2016-Sep-16 15:33N 52°51' E 004°14'5217.2
2016-Sep-16 12:34N 51°60' E 004°02'16 5.3
2016-Sep-16 09:33N 51°53' E 004°25'  
Track history (hours):
 
Tides and Currents Weather Stations Pressure Air Temp Water Temp Dewpoint Dewpoint Depression Visibility Wind Speed Wind Dir Waves Ship Positions

Containerships 6

Last reported at 2016-Sep-26 08:34 UTC. Time now 2016-Sep-26 10:31 UTC.
Position N 54°28' E 011°32'.

Length 155 m; beam 21.8 m; draft 8.9 m.

Type: Ship (hazmat cat A). MMSI: 211315096.

Date/timePositionNaut miles runAvg speedWind from/ knotsBaromVisibWave heightAir tempDewpointWater temp
2016-Sep-26 08:34N 54°28' E 011°32'6210.1
2016-Sep-26 02:27N 54°21' E 009°47'33 6.8
2016-Sep-25 21:33N 53°55' E 009°12'4010.0
2016-Sep-25 17:33N 53°59' E 008°04'1818.4
2016-Sep-25 16:33N 53°56' E 007°34'1918.5
2016-Sep-25 15:33N 53°51' E 007°03'1818.6
2016-Sep-25 14:33N 53°46' E 006°33'3718.5
2016-Sep-25 12:33N 53°35' E 005°34'1918.7
2016-Sep-25 11:33N 53°29' E 005°04'2217.7
2016-Sep-25 10:20N 53°16' E 004°35'1519.1
2016-Sep-25 09:33N 53°02' E 004°23'3718.5
2016-Sep-25 07:33N 52°30' E 003°55'3913.1
2016-Sep-25 04:34N 51°54' E 004°22'2 0.6
2016-Sep-25 00:30N 51°53' E 004°25'0 0.0
2016-Sep-24 22:32N 51°53' E 004°25'0 0.0
2016-Sep-24 21:30N 51°53' E 004°25'0 0.0
2016-Sep-24 19:32N 51°53' E 004°25'0 0.0
2016-Sep-24 18:32N 51°53' E 004°25'0 0.0
2016-Sep-24 14:31N 51°53' E 004°25'1 0.4
2016-Sep-24 12:34N 51°53' E 004°24'2512.7
2016-Sep-24 10:34N 52°02' E 003°46'2018.5
2016-Sep-24 09:28N 52°13' E 003°18'10417.7
2016-Sep-24 03:33N 53°21' E 001°07'3517.6
2016-Sep-24 01:33N 53°50' E 000°34'1818.5
2016-Sep-24 00:34N 54°04' E 000°13'55 3.7
2016-Sep-23 09:26N 54°47' W 000°46'12 4.1
2016-Sep-23 06:33N 54°42' W 001°04'0 0.0
2016-Sep-23 04:33N 54°42' W 001°04'1312.7
2016-Sep-23 03:34N 54°48' W 000°45'39317.1
2016-Sep-22 04:33N 57°40' E 009°51'1616.3
2016-Sep-22 03:33N 57°46' E 010°19'4515.0
2016-Sep-22 00:33N 57°22' E 011°30'1717.0
2016-Sep-21 23:33N 57°07' E 011°41'1717.2
2016-Sep-21 22:33N 56°51' E 011°53'5117.1
2016-Sep-21 19:33N 56°05' E 012°36'3912.9
2016-Sep-21 16:33N 55°27' E 012°42'  
2016-Sep-19 03:24N 60°11' E 025°13'1314.7
2016-Sep-19 02:29N 59°59' E 025°04'2915.0
2016-Sep-19 00:33N 59°41' E 024°18'37716.4
2016-Sep-18 01:34N 55°37' E 015°20'1716.6
2016-Sep-18 00:34N 55°29' E 014°55'3216.0
2016-Sep-17 22:34N 55°07' E 014°15'1616.3
2016-Sep-17 21:33N 54°57' E 013°52'3716.2
2016-Sep-17 19:16N 54°46' E 012°50'8013.9
2016-Sep-17 13:33N 54°33' E 010°35'1312.9
2016-Sep-17 12:33N 54°27' E 010°15'7 3.5
2016-Sep-17 10:33N 54°22' E 010°06'7 7.1
2016-Sep-17 09:33N 54°21' E 009°54'15 7.1
2016-Sep-17 07:25N 54°12' E 009°33'13 7.0
2016-Sep-17 05:33N 54°02' E 009°18'4 3.6
2016-Sep-17 04:33N 53°59' E 009°17'33 8.1
2016-Sep-17 00:33N 53°59' E 008°21'16318.1
2016-Sep-16 15:33N 52°51' E 004°14'5217.2
2016-Sep-16 12:34N 51°60' E 004°02'16 5.3
2016-Sep-16 09:33N 51°53' E 004°25'  

Dump ship's entire track history